sensor_id;sensor_type;location;lat;lon;timestamp;temperature;humidity
4324;DHT22;2175;51.018;6.994;2023-04-03T00:01:10;2.70;99.90
4324;DHT22;2175;51.018;6.994;2023-04-03T00:03:36;2.60;99.90
4324;DHT22;2175;51.018;6.994;2023-04-03T00:06:03;2.50;99.90
4324;DHT22;2175;51.018;6.994;2023-04-03T00:08:29;2.50;99.90
4324;DHT22;2175;51.018;6.994;2023-04-03T00:10:58;2.70;99.90
4324;DHT22;2175;51.018;6.994;2023-04-03T00:13:23;2.60;99.90
4324;DHT22;2175;51.018;6.994;2023-04-03T00:15:49;2.50;99.90
4324;DHT22;2175;51.018;6.994;2023-04-03T00:18:15;2.50;99.90
4324;DHT22;2175;51.018;6.994;2023-04-03T00:20:41;2.60;99.90
4324;DHT22;2175;51.018;6.994;2023-04-03T00:23:06;2.60;99.90
4324;DHT22;2175;51.018;6.994;2023-04-03T00:25:32;2.40;99.90
4324;DHT22;2175;51.018;6.994;2023-04-03T00:27:57;2.50;99.90
4324;DHT22;2175;51.018;6.994;2023-04-03T00:30:23;2.50;99.90
4324;DHT22;2175;51.018;6.994;2023-04-03T00:32:49;2.50;99.90
4324;DHT22;2175;51.018;6.994;2023-04-03T00:35:15;2.40;99.90
4324;DHT22;2175;51.018;6.994;2023-04-03T00:37:42;2.40;99.90
4324;DHT22;2175;51.018;6.994;2023-04-03T00:40:09;2.50;99.90
4324;DHT22;2175;51.018;6.994;2023-04-03T00:42:42;2.40;99.90
4324;DHT22;2175;51.018;6.994;2023-04-03T00:47:43;2.40;99.90
4324;DHT22;2175;51.018;6.994;2023-04-03T00:50:09;2.40;99.90
4324;DHT22;2175;51.018;6.994;2023-04-03T00:52:36;2.20;99.90
4324;DHT22;2175;51.018;6.994;2023-04-03T00:55:06;2.10;99.90
4324;DHT22;2175;51.018;6.994;2023-04-03T00:57:33;2.10;99.90
4324;DHT22;2175;51.018;6.994;2023-04-03T01:00:03;2.00;99.90
4324;DHT22;2175;51.018;6.994;2023-04-03T01:02:29;1.90;99.90
4324;DHT22;2175;51.018;6.994;2023-04-03T01:04:55;1.90;99.90
4324;DHT22;2175;51.018;6.994;2023-04-03T01:07:29;1.80;99.90
4324;DHT22;2175;51.018;6.994;2023-04-03T01:10:00;1.90;99.90
4324;DHT22;2175;51.018;6.994;2023-04-03T01:12:32;1.90;99.90
4324;DHT22;2175;51.018;6.994;2023-04-03T01:15:01;2.00;99.90
4324;DHT22;2175;51.018;6.994;2023-04-03T01:17:34;2.00;99.90
4324;DHT22;2175;51.018;6.994;2023-04-03T01:25:27;1.80;99.90
4324;DHT22;2175;51.018;6.994;2023-04-03T01:27:53;1.80;99.90
4324;DHT22;2175;51.018;6.994;2023-04-03T01:30:20;1.80;99.90
4324;DHT22;2175;51.018;6.994;2023-04-03T01:32:46;1.90;99.90
4324;DHT22;2175;51.018;6.994;2023-04-03T01:35:12;1.80;99.90
4324;DHT22;2175;51.018;6.994;2023-04-03T01:37:38;1.70;99.90
4324;DHT22;2175;51.018;6.994;2023-04-03T01:40:04;1.70;99.90
4324;DHT22;2175;51.018;6.994;2023-04-03T01:42:31;1.80;99.90
4324;DHT22;2175;51.018;6.994;2023-04-03T01:44:56;1.90;99.90
4324;DHT22;2175;51.018;6.994;2023-04-03T01:47:22;1.90;99.90
4324;DHT22;2175;51.018;6.994;2023-04-03T01:49:48;1.90;99.90
4324;DHT22;2175;51.018;6.994;2023-04-03T01:52:13;1.90;99.90
4324;DHT22;2175;51.018;6.994;2023-04-03T01:54:39;2.00;99.90
4324;DHT22;2175;51.018;6.994;2023-04-03T01:57:05;2.00;99.90
4324;DHT22;2175;51.018;6.994;2023-04-03T01:59:30;2.00;99.90
4324;DHT22;2175;51.018;6.994;2023-04-03T02:01:56;1.90;99.90
4324;DHT22;2175;51.018;6.994;2023-04-03T02:04:22;1.90;99.90
4324;DHT22;2175;51.018;6.994;2023-04-03T02:06:48;1.90;99.90
4324;DHT22;2175;51.018;6.994;2023-04-03T02:09:13;1.90;99.90
4324;DHT22;2175;51.018;6.994;2023-04-03T02:11:39;1.90;99.90
4324;DHT22;2175;51.018;6.994;2023-04-03T02:14:05;1.90;99.90
4324;DHT22;2175;51.018;6.994;2023-04-03T02:16:31;1.90;99.90
4324;DHT22;2175;51.018;6.994;2023-04-03T02:18:57;1.90;99.90
4324;DHT22;2175;51.018;6.994;2023-04-03T02:21:23;2.00;99.90
4324;DHT22;2175;51.018;6.994;2023-04-03T02:23:49;1.80;99.90
4324;DHT22;2175;51.018;6.994;2023-04-03T02:26:16;1.80;99.90
4324;DHT22;2175;51.018;6.994;2023-04-03T02:28:42;1.90;99.90
4324;DHT22;2175;51.018;6.994;2023-04-03T02:31:08;1.90;99.90
4324;DHT22;2175;51.018;6.994;2023-04-03T02:33:35;1.90;99.90
4324;DHT22;2175;51.018;6.994;2023-04-03T02:36:03;1.80;99.90
4324;DHT22;2175;51.018;6.994;2023-04-03T02:38:29;1.60;99.90
4324;DHT22;2175;51.018;6.994;2023-04-03T02:41:03;1.70;99.90
4324;DHT22;2175;51.018;6.994;2023-04-03T02:43:29;1.70;99.90
4324;DHT22;2175;51.018;6.994;2023-04-03T02:45:55;1.70;99.90
4324;DHT22;2175;51.018;6.994;2023-04-03T02:48:22;1.80;99.90
4324;DHT22;2175;51.018;6.994;2023-04-03T02:50:47;1.70;99.90
4324;DHT22;2175;51.018;6.994;2023-04-03T02:53:13;1.70;99.90
4324;DHT22;2175;51.018;6.994;2023-04-03T02:55:39;1.80;99.90
4324;DHT22;2175;51.018;6.994;2023-04-03T02:58:04;1.80;99.90
4324;DHT22;2175;51.018;6.994;2023-04-03T03:00:30;1.80;99.90
4324;DHT22;2175;51.018;6.994;2023-04-03T03:02:56;1.80;99.90
4324;DHT22;2175;51.018;6.994;2023-04-03T03:05:21;1.80;99.90
4324;DHT22;2175;51.018;6.994;2023-04-03T03:07:47;1.60;99.90
4324;DHT22;2175;51.018;6.994;2023-04-03T03:10:13;1.60;99.90
4324;DHT22;2175;51.018;6.994;2023-04-03T03:12:39;1.70;99.90
4324;DHT22;2175;51.018;6.994;2023-04-03T03:15:06;1.50;99.90
4324;DHT22;2175;51.018;6.994;2023-04-03T03:17:32;1.40;99.90
4324;DHT22;2175;51.018;6.994;2023-04-03T03:19:58;1.40;99.90
4324;DHT22;2175;51.018;6.994;2023-04-03T03:22:24;1.50;99.90
4324;DHT22;2175;51.018;6.994;2023-04-03T03:24:50;1.50;99.90
4324;DHT22;2175;51.018;6.994;2023-04-03T03:27:15;1.40;99.90
4324;DHT22;2175;51.018;6.994;2023-04-03T03:29:42;1.60;99.90
4324;DHT22;2175;51.018;6.994;2023-04-03T03:32:07;1.60;99.90
4324;DHT22;2175;51.018;6.994;2023-04-03T03:34:33;1.60;99.90
4324;DHT22;2175;51.018;6.994;2023-04-03T03:36:59;1.60;99.90
4324;DHT22;2175;51.018;6.994;2023-04-03T03:39:25;1.60;99.90
4324;DHT22;2175;51.018;6.994;2023-04-03T03:41:50;1.50;99.90
4324;DHT22;2175;51.018;6.994;2023-04-03T03:44:19;1.50;99.90
4324;DHT22;2175;51.018;6.994;2023-04-03T03:46:45;1.40;99.90
4324;DHT22;2175;51.018;6.994;2023-04-03T03:49:10;1.50;99.90
4324;DHT22;2175;51.018;6.994;2023-04-03T03:51:37;1.60;99.90
4324;DHT22;2175;51.018;6.994;2023-04-03T03:54:03;1.50;99.90
4324;DHT22;2175;51.018;6.994;2023-04-03T03:56:29;1.50;99.90
4324;DHT22;2175;51.018;6.994;2023-04-03T03:58:54;1.60;99.90
4324;DHT22;2175;51.018;6.994;2023-04-03T04:01:24;1.60;99.90
4324;DHT22;2175;51.018;6.994;2023-04-03T04:03:50;1.70;99.90
4324;DHT22;2175;51.018;6.994;2023-04-03T04:06:16;1.70;99.90
4324;DHT22;2175;51.018;6.994;2023-04-03T04:08:41;1.70;99.90
4324;DHT22;2175;51.018;6.994;2023-04-03T04:11:08;1.70;99.90
4324;DHT22;2175;51.018;6.994;2023-04-03T04:13:34;1.80;99.90
4324;DHT22;2175;51.018;6.994;2023-04-03T04:15:59;1.80;99.90
4324;DHT22;2175;51.018;6.994;2023-04-03T04:18:25;1.80;99.90
4324;DHT22;2175;51.018;6.994;2023-04-03T04:20:50;1.90;99.90
4324;DHT22;2175;51.018;6.994;2023-04-03T04:23:17;1.90;99.90
4324;DHT22;2175;51.018;6.994;2023-04-03T04:25:46;1.80;99.90
4324;DHT22;2175;51.018;6.994;2023-04-03T04:28:12;1.90;99.90
4324;DHT22;2175;51.018;6.994;2023-04-03T04:30:39;1.90;99.90
4324;DHT22;2175;51.018;6.994;2023-04-03T04:33:05;1.90;99.90
4324;DHT22;2175;51.018;6.994;2023-04-03T04:35:30;1.90;99.90
4324;DHT22;2175;51.018;6.994;2023-04-03T04:37:56;1.90;99.90
4324;DHT22;2175;51.018;6.994;2023-04-03T04:40:22;1.90;99.90
4324;DHT22;2175;51.018;6.994;2023-04-03T04:42:47;2.00;99.90
4324;DHT22;2175;51.018;6.994;2023-04-03T04:45:13;2.00;99.90
4324;DHT22;2175;51.018;6.994;2023-04-03T04:47:40;2.00;99.90
4324;DHT22;2175;51.018;6.994;2023-04-03T04:50:06;2.00;99.90
4324;DHT22;2175;51.018;6.994;2023-04-03T04:52:32;2.00;99.90
4324;DHT22;2175;51.018;6.994;2023-04-03T04:54:58;2.00;99.90
4324;DHT22;2175;51.018;6.994;2023-04-03T04:57:23;2.00;99.90
4324;DHT22;2175;51.018;6.994;2023-04-03T04:59:49;2.00;99.90
4324;DHT22;2175;51.018;6.994;2023-04-03T05:02:16;2.00;99.90
4324;DHT22;2175;51.018;6.994;2023-04-03T05:04:41;2.00;99.90
4324;DHT22;2175;51.018;6.994;2023-04-03T05:07:07;2.00;99.90
4324;DHT22;2175;51.018;6.994;2023-04-03T05:09:32;2.00;99.90
4324;DHT22;2175;51.018;6.994;2023-04-03T05:11:58;2.00;99.90
4324;DHT22;2175;51.018;6.994;2023-04-03T05:14:24;2.00;99.90
4324;DHT22;2175;51.018;6.994;2023-04-03T05:16:50;2.00;99.90
4324;DHT22;2175;51.018;6.994;2023-04-03T05:19:19;2.00;99.90
4324;DHT22;2175;51.018;6.994;2023-04-03T05:21:45;2.10;99.90
4324;DHT22;2175;51.018;6.994;2023-04-03T05:24:11;2.10;99.90
4324;DHT22;2175;51.018;6.994;2023-04-03T05:26:36;2.10;99.90
4324;DHT22;2175;51.018;6.994;2023-04-03T05:29:03;2.00;99.90
4324;DHT22;2175;51.018;6.994;2023-04-03T05:31:28;2.10;99.90
4324;DHT22;2175;51.018;6.994;2023-04-03T05:33:55;2.10;99.90
4324;DHT22;2175;51.018;6.994;2023-04-03T05:36:21;2.10;99.90
4324;DHT22;2175;51.018;6.994;2023-04-03T05:38:46;2.20;99.90
4324;DHT22;2175;51.018;6.994;2023-04-03T05:41:13;2.20;99.90
4324;DHT22;2175;51.018;6.994;2023-04-03T05:43:38;2.10;99.90
4324;DHT22;2175;51.018;6.994;2023-04-03T05:46:16;2.20;99.90
4324;DHT22;2175;51.018;6.994;2023-04-03T05:48:43;2.30;99.90
4324;DHT22;2175;51.018;6.994;2023-04-03T05:51:25;2.40;99.90
4324;DHT22;2175;51.018;6.994;2023-04-03T05:53:59;2.40;99.90
4324;DHT22;2175;51.018;6.994;2023-04-03T05:56:26;2.50;99.90
4324;DHT22;2175;51.018;6.994;2023-04-03T05:58:52;2.50;99.90
4324;DHT22;2175;51.018;6.994;2023-04-03T06:01:17;2.50;99.90
4324;DHT22;2175;51.018;6.994;2023-04-03T06:03:43;2.60;99.90
4324;DHT22;2175;51.018;6.994;2023-04-03T06:06:13;2.60;99.90
4324;DHT22;2175;51.018;6.994;2023-04-03T06:08:39;2.70;99.90
4324;DHT22;2175;51.018;6.994;2023-04-03T06:11:05;2.60;99.90
4324;DHT22;2175;51.018;6.994;2023-04-03T06:13:31;2.70;99.90
4324;DHT22;2175;51.018;6.994;2023-04-03T06:15:57;2.80;99.90
4324;DHT22;2175;51.018;6.994;2023-04-03T06:18:23;2.90;99.90
4324;DHT22;2175;51.018;6.994;2023-04-03T06:20:48;3.00;99.90
4324;DHT22;2175;51.018;6.994;2023-04-03T06:23:16;2.90;99.90
4324;DHT22;2175;51.018;6.994;2023-04-03T06:25:43;2.90;99.90
4324;DHT22;2175;51.018;6.994;2023-04-03T06:28:09;2.90;99.90
4324;DHT22;2175;51.018;6.994;2023-04-03T06:30:36;3.10;99.90
4324;DHT22;2175;51.018;6.994;2023-04-03T06:33:03;3.10;99.90
4324;DHT22;2175;51.018;6.994;2023-04-03T06:35:29;3.20;99.90
4324;DHT22;2175;51.018;6.994;2023-04-03T06:37:55;3.30;99.90
4324;DHT22;2175;51.018;6.994;2023-04-03T06:40:23;3.40;99.90
4324;DHT22;2175;51.018;6.994;2023-04-03T06:42:50;3.40;99.90
4324;DHT22;2175;51.018;6.994;2023-04-03T06:45:16;3.40;99.90
4324;DHT22;2175;51.018;6.994;2023-04-03T06:47:42;3.50;99.90
4324;DHT22;2175;51.018;6.994;2023-04-03T06:50:09;3.60;99.90
4324;DHT22;2175;51.018;6.994;2023-04-03T06:52:37;3.70;99.90
4324;DHT22;2175;51.018;6.994;2023-04-03T06:55:03;3.70;99.90
4324;DHT22;2175;51.018;6.994;2023-04-03T06:57:29;3.90;99.90
4324;DHT22;2175;51.018;6.994;2023-04-03T06:59:54;4.00;99.90
4324;DHT22;2175;51.018;6.994;2023-04-03T07:02:20;4.00;99.90
4324;DHT22;2175;51.018;6.994;2023-04-03T07:04:47;4.00;99.90
4324;DHT22;2175;51.018;6.994;2023-04-03T07:07:12;4.10;99.90
4324;DHT22;2175;51.018;6.994;2023-04-03T07:09:38;4.10;99.90
4324;DHT22;2175;51.018;6.994;2023-04-03T07:12:04;4.20;99.90
4324;DHT22;2175;51.018;6.994;2023-04-03T07:14:29;4.30;99.90
4324;DHT22;2175;51.018;6.994;2023-04-03T07:16:55;4.30;99.90
4324;DHT22;2175;51.018;6.994;2023-04-03T07:19:20;4.50;99.90
4324;DHT22;2175;51.018;6.994;2023-04-03T07:21:46;4.60;99.90
4324;DHT22;2175;51.018;6.994;2023-04-03T07:24:12;4.60;99.90
4324;DHT22;2175;51.018;6.994;2023-04-03T07:26:37;4.60;99.90
4324;DHT22;2175;51.018;6.994;2023-04-03T07:29:03;4.60;99.90
4324;DHT22;2175;51.018;6.994;2023-04-03T07:31:29;4.60;99.90
4324;DHT22;2175;51.018;6.994;2023-04-03T07:33:54;4.70;99.90
4324;DHT22;2175;51.018;6.994;2023-04-03T07:36:22;4.80;99.90
4324;DHT22;2175;51.018;6.994;2023-04-03T07:38:48;4.90;99.90
4324;DHT22;2175;51.018;6.994;2023-04-03T07:41:15;4.90;99.90
4324;DHT22;2175;51.018;6.994;2023-04-03T07:43:41;4.80;99.90
4324;DHT22;2175;51.018;6.994;2023-04-03T07:46:07;4.80;99.90
4324;DHT22;2175;51.018;6.994;2023-04-03T07:48:33;4.90;99.90
4324;DHT22;2175;51.018;6.994;2023-04-03T07:51:01;5.10;99.90
4324;DHT22;2175;51.018;6.994;2023-04-03T07:53:28;5.20;99.90
4324;DHT22;2175;51.018;6.994;2023-04-03T07:55:57;6.20;99.90
4324;DHT22;2175;51.018;6.994;2023-04-03T07:58:23;7.60;99.90
4324;DHT22;2175;51.018;6.994;2023-04-03T08:00:51;8.60;99.90
4324;DHT22;2175;51.018;6.994;2023-04-03T08:03:16;9.20;99.90
4324;DHT22;2175;51.018;6.994;2023-04-03T08:05:49;9.80;99.90
4324;DHT22;2175;51.018;6.994;2023-04-03T08:08:22;10.00;99.90
4324;DHT22;2175;51.018;6.994;2023-04-03T08:11:03;10.20;99.90
4324;DHT22;2175;51.018;6.994;2023-04-03T08:13:31;11.00;99.90
4324;DHT22;2175;51.018;6.994;2023-04-03T08:15:57;11.30;99.90
4324;DHT22;2175;51.018;6.994;2023-04-03T08:18:30;12.00;99.90
4324;DHT22;2175;51.018;6.994;2023-04-03T08:20:58;11.90;99.90
4324;DHT22;2175;51.018;6.994;2023-04-03T08:23:23;12.20;99.90
4324;DHT22;2175;51.018;6.994;2023-04-03T08:25:54;12.40;99.00
4324;DHT22;2175;51.018;6.994;2023-04-03T08:28:20;12.00;97.70
4324;DHT22;2175;51.018;6.994;2023-04-03T08:30:45;12.60;97.70
4324;DHT22;2175;51.018;6.994;2023-04-03T08:33:11;12.60;96.80
4324;DHT22;2175;51.018;6.994;2023-04-03T08:35:40;12.60;95.80
4324;DHT22;2175;51.018;6.994;2023-04-03T08:38:07;13.40;99.90
4324;DHT22;2175;51.018;6.994;2023-04-03T08:43:58;12.90;93.20
4324;DHT22;2175;51.018;6.994;2023-04-03T08:46:55;13.10;94.30
4324;DHT22;2175;51.018;6.994;2023-04-03T08:49:32;13.50;98.40
4324;DHT22;2175;51.018;6.994;2023-04-03T08:52:02;13.50;92.00
4324;DHT22;2175;51.018;6.994;2023-04-03T08:54:54;13.50;90.90
4324;DHT22;2175;51.018;6.994;2023-04-03T08:59:52;13.40;85.20
4324;DHT22;2175;51.018;6.994;2023-04-03T09:05:19;13.70;90.30
4324;DHT22;2175;51.018;6.994;2023-04-03T09:07:49;13.50;89.50
4324;DHT22;2175;51.018;6.994;2023-04-03T09:10:24;13.10;82.70
4324;DHT22;2175;51.018;6.994;2023-04-03T09:13:01;13.40;80.00
4324;DHT22;2175;51.018;6.994;2023-04-03T09:15:34;13.70;75.70
4324;DHT22;2175;51.018;6.994;2023-04-03T09:18:20;13.10;76.80
4324;DHT22;2175;51.018;6.994;2023-04-03T09:21:12;13.50;72.10
4324;DHT22;2175;51.018;6.994;2023-04-03T09:26:34;12.90;74.20
4324;DHT22;2175;51.018;6.994;2023-04-03T09:29:07;12.70;71.40
4324;DHT22;2175;51.018;6.994;2023-04-03T09:31:39;12.70;77.80
4324;DHT22;2175;51.018;6.994;2023-04-03T09:36:55;13.00;78.90
4324;DHT22;2175;51.018;6.994;2023-04-03T09:39:29;13.10;79.20
4324;DHT22;2175;51.018;6.994;2023-04-03T09:42:22;12.80;73.60
4324;DHT22;2175;51.018;6.994;2023-04-03T09:45:00;13.10;75.20
4324;DHT22;2175;51.018;6.994;2023-04-03T09:47:35;12.90;80.00
4324;DHT22;2175;51.018;6.994;2023-04-03T09:50:21;12.90;85.00
4324;DHT22;2175;51.018;6.994;2023-04-03T09:52:49;12.70;81.50
4324;DHT22;2175;51.018;6.994;2023-04-03T09:55:22;12.60;80.00
4324;DHT22;2175;51.018;6.994;2023-04-03T09:57:54;13.40;91.90
4324;DHT22;2175;51.018;6.994;2023-04-03T10:00:25;13.50;86.90
4324;DHT22;2175;51.018;6.994;2023-04-03T10:02:54;12.60;82.10
4324;DHT22;2175;51.018;6.994;2023-04-03T10:05:41;12.20;86.00
4324;DHT22;2175;51.018;6.994;2023-04-03T10:08:29;11.80;86.40
4324;DHT22;2175;51.018;6.994;2023-04-03T10:11:19;11.70;81.00
4324;DHT22;2175;51.018;6.994;2023-04-03T10:14:02;11.50;83.90
4324;DHT22;2175;51.018;6.994;2023-04-03T10:16:38;11.60;90.30
4324;DHT22;2175;51.018;6.994;2023-04-03T10:21:59;11.50;93.80
4324;DHT22;2175;51.018;6.994;2023-04-03T10:24:36;11.50;91.50
4324;DHT22;2175;51.018;6.994;2023-04-03T10:27:18;11.50;92.70
4324;DHT22;2175;51.018;6.994;2023-04-03T10:30:02;11.60;93.70
4324;DHT22;2175;51.018;6.994;2023-04-03T10:32:48;12.00;93.50
4324;DHT22;2175;51.018;6.994;2023-04-03T10:41:34;11.60;94.40
4324;DHT22;2175;51.018;6.994;2023-04-03T10:44:26;11.50;92.40
4324;DHT22;2175;51.018;6.994;2023-04-03T10:47:28;11.20;88.80
4324;DHT22;2175;51.018;6.994;2023-04-03T10:50:25;11.40;91.30
4324;DHT22;2175;51.018;6.994;2023-04-03T10:56:09;11.70;93.90
4324;DHT22;2175;51.018;6.994;2023-04-03T10:58:48;11.40;84.60
4324;DHT22;2175;51.018;6.994;2023-04-03T11:01:20;11.00;79.10
4324;DHT22;2175;51.018;6.994;2023-04-03T11:03:53;11.00;86.00
4324;DHT22;2175;51.018;6.994;2023-04-03T11:06:26;11.00;87.00
4324;DHT22;2175;51.018;6.994;2023-04-03T11:09:27;10.90;80.60
4324;DHT22;2175;51.018;6.994;2023-04-03T11:11:58;10.70;81.90
4324;DHT22;2175;51.018;6.994;2023-04-03T11:14:34;10.90;81.30
4324;DHT22;2175;51.018;6.994;2023-04-03T11:22:30;10.40;81.00
4324;DHT22;2175;51.018;6.994;2023-04-03T11:27:58;10.20;80.30
4324;DHT22;2175;51.018;6.994;2023-04-03T11:33:37;10.30;75.60
4324;DHT22;2175;51.018;6.994;2023-04-03T11:36:45;10.60;77.30
4324;DHT22;2175;51.018;6.994;2023-04-03T11:42:17;11.00;75.00
4324;DHT22;2175;51.018;6.994;2023-04-03T11:44:47;10.60;73.90
4324;DHT22;2175;51.018;6.994;2023-04-03T11:47:47;10.60;73.70
4324;DHT22;2175;51.018;6.994;2023-04-03T11:50:40;10.50;72.50
4324;DHT22;2175;51.018;6.994;2023-04-03T12:00:58;10.50;66.80
4324;DHT22;2175;51.018;6.994;2023-04-03T12:14:02;10.20;62.00
4324;DHT22;2175;51.018;6.994;2023-04-03T12:16:45;10.20;61.90
4324;DHT22;2175;51.018;6.994;2023-04-03T12:24:31;10.20;55.20
4324;DHT22;2175;51.018;6.994;2023-04-03T12:29:34;10.40;62.30
4324;DHT22;2175;51.018;6.994;2023-04-03T12:37:44;10.20;58.30
4324;DHT22;2175;51.018;6.994;2023-04-03T12:46:12;10.30;59.10
4324;DHT22;2175;51.018;6.994;2023-04-03T12:53:47;10.40;58.00
4324;DHT22;2175;51.018;6.994;2023-04-03T12:56:27;10.30;57.90
4324;DHT22;2175;51.018;6.994;2023-04-03T13:01:39;10.30;59.10
4324;DHT22;2175;51.018;6.994;2023-04-03T13:04:05;10.40;64.90
4324;DHT22;2175;51.018;6.994;2023-04-03T13:06:42;10.30;58.80
4324;DHT22;2175;51.018;6.994;2023-04-03T13:09:27;10.30;60.30
4324;DHT22;2175;51.018;6.994;2023-04-03T13:12:02;10.40;62.30
4324;DHT22;2175;51.018;6.994;2023-04-03T13:14:30;10.60;68.30
4324;DHT22;2175;51.018;6.994;2023-04-03T13:19:29;10.50;63.10
4324;DHT22;2175;51.018;6.994;2023-04-03T13:22:10;10.60;63.80
4324;DHT22;2175;51.018;6.994;2023-04-03T13:24:47;10.50;61.60
4324;DHT22;2175;51.018;6.994;2023-04-03T13:27:14;10.40;61.50
4324;DHT22;2175;51.018;6.994;2023-04-03T13:29:40;10.50;65.40
4324;DHT22;2175;51.018;6.994;2023-04-03T13:32:06;10.40;60.70
4324;DHT22;2175;51.018;6.994;2023-04-03T13:34:41;10.30;62.00
4324;DHT22;2175;51.018;6.994;2023-04-03T13:37:22;10.40;66.40
4324;DHT22;2175;51.018;6.994;2023-04-03T13:40:17;10.40;64.70
4324;DHT22;2175;51.018;6.994;2023-04-03T13:42:43;10.50;63.20
4324;DHT22;2175;51.018;6.994;2023-04-03T13:45:25;10.50;67.20
4324;DHT22;2175;51.018;6.994;2023-04-03T13:48:16;10.40;64.80
4324;DHT22;2175;51.018;6.994;2023-04-03T13:54:18;10.50;62.80
4324;DHT22;2175;51.018;6.994;2023-04-03T13:56:44;10.50;65.00
4324;DHT22;2175;51.018;6.994;2023-04-03T14:04:25;10.40;65.50
4324;DHT22;2175;51.018;6.994;2023-04-03T14:06:53;10.50;67.00
4324;DHT22;2175;51.018;6.994;2023-04-03T14:09:19;10.50;67.80
4324;DHT22;2175;51.018;6.994;2023-04-03T14:11:46;10.40;67.70
4324;DHT22;2175;51.018;6.994;2023-04-03T14:14:16;10.50;69.00
4324;DHT22;2175;51.018;6.994;2023-04-03T14:16:45;10.40;68.40
4324;DHT22;2175;51.018;6.994;2023-04-03T14:19:19;10.50;67.40
4324;DHT22;2175;51.018;6.994;2023-04-03T14:21:45;10.50;70.10
4324;DHT22;2175;51.018;6.994;2023-04-03T14:24:10;10.60;71.50
4324;DHT22;2175;51.018;6.994;2023-04-03T14:26:37;10.70;69.30
4324;DHT22;2175;51.018;6.994;2023-04-03T14:29:03;10.60;69.50
4324;DHT22;2175;51.018;6.994;2023-04-03T14:31:28;10.80;71.60
4324;DHT22;2175;51.018;6.994;2023-04-03T14:33:54;10.70;69.00
4324;DHT22;2175;51.018;6.994;2023-04-03T14:36:21;10.60;69.70
4324;DHT22;2175;51.018;6.994;2023-04-03T14:38:48;10.60;69.50
4324;DHT22;2175;51.018;6.994;2023-04-03T14:41:16;10.60;70.00
4324;DHT22;2175;51.018;6.994;2023-04-03T14:43:42;10.50;69.20
4324;DHT22;2175;51.018;6.994;2023-04-03T14:46:26;10.50;70.40
4324;DHT22;2175;51.018;6.994;2023-04-03T14:48:53;10.60;70.80
4324;DHT22;2175;51.018;6.994;2023-04-03T14:51:19;10.40;67.50
4324;DHT22;2175;51.018;6.994;2023-04-03T14:53:45;10.40;70.70
4324;DHT22;2175;51.018;6.994;2023-04-03T14:56:13;10.40;71.10
4324;DHT22;2175;51.018;6.994;2023-04-03T14:58:39;10.50;71.60
4324;DHT22;2175;51.018;6.994;2023-04-03T15:01:05;10.60;74.20
4324;DHT22;2175;51.018;6.994;2023-04-03T15:03:30;10.70;72.60
4324;DHT22;2175;51.018;6.994;2023-04-03T15:05:56;10.70;69.50
4324;DHT22;2175;51.018;6.994;2023-04-03T15:08:27;10.60;69.60
4324;DHT22;2175;51.018;6.994;2023-04-03T15:10:55;10.50;71.10
4324;DHT22;2175;51.018;6.994;2023-04-03T15:13:24;10.50;71.60
4324;DHT22;2175;51.018;6.994;2023-04-03T15:15:51;10.40;69.80
4324;DHT22;2175;51.018;6.994;2023-04-03T15:18:20;10.30;69.70
4324;DHT22;2175;51.018;6.994;2023-04-03T15:20:47;10.30;72.80
4324;DHT22;2175;51.018;6.994;2023-04-03T15:23:14;10.30;71.40
4324;DHT22;2175;51.018;6.994;2023-04-03T15:25:42;10.30;73.10
4324;DHT22;2175;51.018;6.994;2023-04-03T15:28:13;10.20;71.80
4324;DHT22;2175;51.018;6.994;2023-04-03T15:30:42;10.30;72.90
4324;DHT22;2175;51.018;6.994;2023-04-03T15:33:08;10.40;72.30
4324;DHT22;2175;51.018;6.994;2023-04-03T15:35:33;10.40;73.00
4324;DHT22;2175;51.018;6.994;2023-04-03T15:37:59;10.40;73.60
4324;DHT22;2175;51.018;6.994;2023-04-03T15:40:24;10.40;74.60
4324;DHT22;2175;51.018;6.994;2023-04-03T15:42:51;10.30;73.80
4324;DHT22;2175;51.018;6.994;2023-04-03T15:45:16;10.30;74.00
4324;DHT22;2175;51.018;6.994;2023-04-03T15:47:42;10.30;74.70
4324;DHT22;2175;51.018;6.994;2023-04-03T15:50:08;10.30;76.70
4324;DHT22;2175;51.018;6.994;2023-04-03T15:52:34;10.30;75.40
4324;DHT22;2175;51.018;6.994;2023-04-03T15:55:00;10.30;74.60
4324;DHT22;2175;51.018;6.994;2023-04-03T15:57:26;10.20;72.60
4324;DHT22;2175;51.018;6.994;2023-04-03T15:59:52;10.20;78.00
4324;DHT22;2175;51.018;6.994;2023-04-03T16:02:18;10.20;75.10
4324;DHT22;2175;51.018;6.994;2023-04-03T16:04:44;10.30;74.70
4324;DHT22;2175;51.018;6.994;2023-04-03T16:07:09;10.30;75.60
4324;DHT22;2175;51.018;6.994;2023-04-03T16:09:36;10.20;75.30
4324;DHT22;2175;51.018;6.994;2023-04-03T16:12:02;10.10;75.30
4324;DHT22;2175;51.018;6.994;2023-04-03T16:14:28;10.10;76.00
4324;DHT22;2175;51.018;6.994;2023-04-03T16:16:56;10.20;80.80
4324;DHT22;2175;51.018;6.994;2023-04-03T16:19:22;10.20;76.50
4324;DHT22;2175;51.018;6.994;2023-04-03T16:21:48;10.10;78.20
4324;DHT22;2175;51.018;6.994;2023-04-03T16:24:14;9.90;78.80
4324;DHT22;2175;51.018;6.994;2023-04-03T16:26:40;9.90;78.10
4324;DHT22;2175;51.018;6.994;2023-04-03T16:29:06;9.70;78.80
4324;DHT22;2175;51.018;6.994;2023-04-03T16:31:32;9.80;79.20
4324;DHT22;2175;51.018;6.994;2023-04-03T16:33:59;9.80;79.90
4324;DHT22;2175;51.018;6.994;2023-04-03T16:36:25;9.90;80.30
4324;DHT22;2175;51.018;6.994;2023-04-03T16:38:51;9.70;80.80
4324;DHT22;2175;51.018;6.994;2023-04-03T16:41:17;9.50;81.50
4324;DHT22;2175;51.018;6.994;2023-04-03T16:43:42;9.50;78.80
4324;DHT22;2175;51.018;6.994;2023-04-03T16:46:08;9.40;81.40
4324;DHT22;2175;51.018;6.994;2023-04-03T16:48:34;9.40;82.70
4324;DHT22;2175;51.018;6.994;2023-04-03T16:50:59;9.30;81.10
4324;DHT22;2175;51.018;6.994;2023-04-03T16:53:26;9.30;81.40
4324;DHT22;2175;51.018;6.994;2023-04-03T16:55:52;9.40;81.10
4324;DHT22;2175;51.018;6.994;2023-04-03T16:58:18;9.30;82.50
4324;DHT22;2175;51.018;6.994;2023-04-03T17:00:44;9.30;83.00
4324;DHT22;2175;51.018;6.994;2023-04-03T17:03:09;9.10;83.40
4324;DHT22;2175;51.018;6.994;2023-04-03T17:05:35;9.10;81.60
4324;DHT22;2175;51.018;6.994;2023-04-03T17:08:01;9.10;82.30
4324;DHT22;2175;51.018;6.994;2023-04-03T17:10:27;9.10;84.40
4324;DHT22;2175;51.018;6.994;2023-04-03T17:12:53;9.10;83.50
4324;DHT22;2175;51.018;6.994;2023-04-03T17:15:20;9.10;83.50
4324;DHT22;2175;51.018;6.994;2023-04-03T17:17:50;9.00;84.90
4324;DHT22;2175;51.018;6.994;2023-04-03T17:20:16;9.00;83.70
4324;DHT22;2175;51.018;6.994;2023-04-03T17:22:42;8.90;82.60
4324;DHT22;2175;51.018;6.994;2023-04-03T17:25:08;8.80;82.40
4324;DHT22;2175;51.018;6.994;2023-04-03T17:27:33;8.70;82.50
4324;DHT22;2175;51.018;6.994;2023-04-03T17:29:59;8.70;83.50
4324;DHT22;2175;51.018;6.994;2023-04-03T17:32:25;8.60;83.80
4324;DHT22;2175;51.018;6.994;2023-04-03T17:34:51;8.60;82.60
4324;DHT22;2175;51.018;6.994;2023-04-03T17:37:16;8.50;84.20
4324;DHT22;2175;51.018;6.994;2023-04-03T17:39:42;8.50;84.90
4324;DHT22;2175;51.018;6.994;2023-04-03T17:42:08;8.40;84.90
4324;DHT22;2175;51.018;6.994;2023-04-03T17:44:33;8.40;89.30
4324;DHT22;2175;51.018;6.994;2023-04-03T17:46:59;8.40;89.50
4324;DHT22;2175;51.018;6.994;2023-04-03T17:49:25;8.30;90.40
4324;DHT22;2175;51.018;6.994;2023-04-03T17:51:50;8.20;91.10
4324;DHT22;2175;51.018;6.994;2023-04-03T17:54:16;8.20;91.00
4324;DHT22;2175;51.018;6.994;2023-04-03T17:56:42;8.20;93.40
4324;DHT22;2175;51.018;6.994;2023-04-03T17:59:15;8.10;94.10
4324;DHT22;2175;51.018;6.994;2023-04-03T18:01:43;8.10;92.80
4324;DHT22;2175;51.018;6.994;2023-04-03T18:04:09;8.00;91.90
4324;DHT22;2175;51.018;6.994;2023-04-03T18:06:46;7.90;93.70
4324;DHT22;2175;51.018;6.994;2023-04-03T18:09:14;7.90;93.30